Nearby METAR Reports

 

KSJC - San Jose, California, USA
Distance from station: NØ 14km
Opdateret: 18/10/2019 20:53
Mest skyet
Mest skyet
 Vind retning varies
Vind: varies 11 km/h
Temperatur: 21°C
Dugpunkt: 12°C
Fugtighed: 57%
Barometer: 1019 hPa
Clouds: Mest skyet
Visibility: 16 km
Cloud details: Few Clouds 853 m
Delvist skyet 3048 m
Mest skyet 4572 m
2019/10/18 18:53 KSJC 181853Z VRB06KT 10SM FEW028 SCT100 BKN150 21/12 A3009 RMK AO2 SLP188 T02060117
KNUQ - Moffett Nas/Mtn, California, USA
Distance from station: N 14km
Opdateret: 18/10/2019 20:56

 
Barometer: 1019 hPa
2019/10/18 18:56 KNUQ 181856Z A3009 RMK AO2 SLP193 PWINO $
 
KPAO - Palo Alto, California, USA
Distance from station: NNV 23km
Opdateret: 18/10/2019 20:47
Delvist skyet
Delvist skyet
 Vind retning varies
Vind: varies 9 km/h
Temperatur: 17°C
Dugpunkt: 12°C
Fugtighed: 73%
Barometer: 1019.3 hPa
Clouds: Delvist skyet
Visibility: 16 km
Cloud details: Few Clouds 1219 m
Delvist skyet 3658 m
2019/10/18 18:47 KPAO 181847Z VRB05KT 10SM FEW040 SCT120 17/12 A3010
KRHV - San Jose/Reid, California, USA
Distance from station: ØNØ 19km
Opdateret: 18/10/2019 20:47
Klart
Klart
 Vind retning NNV
Vind: NNV 9 km/h
Temperatur: 19°C
Dugpunkt: 9°C
Fugtighed: 52%
Barometer: 1019.3 hPa
Clouds: Klart
Visibility: 16 km
2019/10/18 18:47 KRHV 181847Z 34005KT 10SM SKC 19/09 A3010
 
KOAK - Oakland, California, USA
Distance from station: NNV 50km
Opdateret: 18/10/2019 20:53
Delvist skyet
Delvist skyet
 Vind retning SSV
Vind: SSV 9 km/h
Temperatur: 18°C
Dugpunkt: 12°C
Fugtighed: 68%
Barometer: 1019.3 hPa
Clouds: Delvist skyet
Visibility: 16 km
Cloud details: Few Clouds 305 m
Delvist skyet 6096 m
2019/10/18 18:53 KOAK 181853Z 20005KT 10SM FEW010 SCT200 18/12 A3010 RMK AO2 SLP193 T01780122
KSQL - San Carlos Airpo, California, USA
Distance from station: NV 34km
Opdateret: 18/10/2019 20:47

 Vind retning NNØ
Vind: NNØ 9 km/h
2019/10/18 18:47 KSQL 181847Z 03005KT 10 BKN030 BKN040 18/13 A3010
 
KSFO - San Francisco, California, USA
Distance from station: NV 49km
Opdateret: 18/10/2019 20:56
Mest skyet
Mest skyet
 Vind retning V
Vind: V 20 km/h
Temperatur: 19°C
Dugpunkt: 13°C
Fugtighed: 68%
Barometer: 1019 hPa
Clouds: Mest skyet
Visibility: 16 km
Cloud details: Mest skyet 427 m
Mest skyet 5486 m
2019/10/18 18:56 KSFO 181856Z 26011KT 10SM BKN014 BKN180 19/13 A3009 RMK AO2 SLP190 T01940128
KE16 - San Martin, California, USA
Distance from station: ØSØ 43km
Opdateret: 18/10/2019 20:55
Klart
Klart
 Vind retning NV
Vind: NV 22 km/h, Vindstød: 30 km/h
Temperatur: 20°C
Dugpunkt: 9°C
Fugtighed: 49%
Barometer: 1019.3 hPa
Clouds: Klart
Visibility: 16 km
2019/10/18 18:55 KE16 181855Z AUTO 31012G16KT 10SM CLR 20/09 A3010 RMK AO2
 
KWVI - Watsonville, California, USA
Distance from station: SSØ 44km
Opdateret: 18/10/2019 20:53
Klart
Klart
 Vind retning SSV
Vind: SSV 11 km/h
Temperatur: 20°C
Dugpunkt: 9°C
Fugtighed: 49%
Barometer: 1019.6 hPa
Clouds: Klart
Visibility: 16 km
2019/10/18 18:53 KWVI 181853Z AUTO 20006KT 10SM CLR 20/09 A3011 RMK AO2 SLP194 T02000094
KHAF - Half Moon Bay, California, USA
Distance from station: VNV 50km
Opdateret: 18/10/2019 21:00
Mist, Overskyet
Mist, Overskyet
 Vind retning calm
Vind: Vindstille
Temperatur: 15°C
Dugpunkt: 13°C
Fugtighed: 88%
Barometer: 1020 hPa
Oversigt: Mist
Clouds: Overskyet
Visibility: 4 km
Cloud details: Overskyet 152 m
2019/10/18 19:00 KHAF 181900Z AUTO 00000KT 2 1/2SM BR OVC005 15/13 A3012 RMK AO2
 
KHWD - Hayward, California, USA
Distance from station: N 44km
Opdateret: 18/10/2019 20:54
Klart
Klart
 Vind retning V
Vind: V 15 km/h
Temperatur: 19°C
Dugpunkt: 12°C
Fugtighed: 64%
Barometer: 1019 hPa
Clouds: Klart
Visibility: 16 km
2019/10/18 18:54 KHWD 181854Z 27008KT 10SM CLR 19/12 A3009 RMK AO2 SLP200 T01890122
KLVK - Livermore, California, USA
Distance from station: NNØ 51km
Opdateret: 18/10/2019 20:53
Klart
Klart
 Vind retning SSV
Vind: SSV 13 km/h
Temperatur: 18°C
Dugpunkt: 9°C
Fugtighed: 56%
Barometer: 1018.6 hPa
Clouds: Klart
Visibility: 16 km
2019/10/18 18:53 KLVK 181853Z 21007KT 10SM CLR 18/09 A3008 RMK AO2 SLP183 T01830094